Cic Pride — H9SQ — position and weather

sailwx.info

Track history (hours):
 
Tides and Currents Weather Stations Pressure Air Temp Water Temp Dewpoint Dewpoint Depression Visibility Wind Speed Wind Dir Waves Ship Positions

Cic Pride

Last reported at 2015-Aug-03 00:33 UTC. Time now 2015-Aug-04 11:44 UTC.
Position N 03°11' E 100°39'.

Length 289 m; draft 10 m.

Type: Cargo ship. MMSI: 351111000.

Date/timePositionNaut miles runAvg speedWind from/ knotsBaromVisibWave heightAir tempDewpointWater temp
2015-Aug-03 00:33N 03°11' E 100°39'2613.2
2015-Aug-02 22:34N 02°52' E 100°58'1313.1
2015-Aug-02 21:33N 02°45' E 101°09'3215.6
2015-Aug-02 19:29N 02°29' E 101°37'14214.3
2015-Aug-02 09:32N 01°12' E 103°37'1312.9
2015-Aug-02 08:33N 01°11' E 103°49'1212.1
2015-Aug-02 07:33N 01°15' E 104°01'4 3.6
2015-Aug-02 06:30N 01°18' E 104°03'0 0.1
2015-Aug-02 05:30N 01°18' E 104°03'0 0.0
2015-Aug-02 04:24N 01°18' E 104°03'0 0.1
2015-Aug-02 03:27N 01°18' E 104°03'0 0.1
2015-Aug-02 02:24N 01°18' E 104°03'1 0.3
2015-Aug-02 00:27N 01°18' E 104°03'0 0.3
2015-Aug-01 23:26N 01°18' E 104°03'0 0.0
2015-Aug-01 22:14N 01°18' E 104°03'0 0.0
2015-Aug-01 21:14N 01°18' E 104°03'0 0.0
2015-Aug-01 20:29N 01°18' E 104°03'0 0.0
2015-Aug-01 19:32N 01°18' E 104°03'0 0.0
2015-Aug-01 18:14N 01°18' E 104°03'0 0.0
2015-Aug-01 17:32N 01°18' E 104°03'0 0.3
2015-Aug-01 16:34N 01°18' E 104°03'  
2015-Jul-27 23:33N 21°48' E 113°15'8 8.2
2015-Jul-27 22:33N 21°55' E 113°12'2 0.8
2015-Jul-27 20:27N 21°57' E 113°12'0 0.0
2015-Jul-27 19:33N 21°57' E 113°12'0 0.0
2015-Jul-27 18:33N 21°57' E 113°12'0 0.0
2015-Jul-27 17:27N 21°57' E 113°12'0 0.0
2015-Jul-27 16:21N 21°57' E 113°12'0 0.0
2015-Jul-27 15:27N 21°57' E 113°12'0 0.0
2015-Jul-27 14:33N 21°57' E 113°12'0 0.0
2015-Jul-27 13:27N 21°57' E 113°12'0 0.0
2015-Jul-27 12:33N 21°57' E 113°12'0 0.0
2015-Jul-27 11:15N 21°57' E 113°12'0 0.0
2015-Jul-27 10:27N 21°57' E 113°12'0 0.0
2015-Jul-27 09:33N 21°57' E 113°12'0 0.0
2015-Jul-27 08:27N 21°57' E 113°12'0 0.0
2015-Jul-27 07:33N 21°57' E 113°12'0 0.0
2015-Jul-27 06:33N 21°57' E 113°12'0 0.0
2015-Jul-27 05:27N 21°57' E 113°12'0 0.0
2015-Jul-27 04:27N 21°57' E 113°12'0 0.0
2015-Jul-27 03:33N 21°57' E 113°12'0 0.0
2015-Jul-27 02:27N 21°57' E 113°12'0 0.0
2015-Jul-27 01:33N 21°57' E 113°12'0 0.0
2015-Jul-27 00:27N 21°57' E 113°12'0 0.0
2015-Jul-26 23:33N 21°57' E 113°12'0 0.0
2015-Jul-26 22:27N 21°57' E 113°12'0 0.0
2015-Jul-26 21:27N 21°57' E 113°12'0 0.0
2015-Jul-26 20:27N 21°57' E 113°12'0 0.0
2015-Jul-26 19:27N 21°57' E 113°12'0 0.0
2015-Jul-26 18:33N 21°57' E 113°12'0 0.0
2015-Jul-26 17:33N 21°57' E 113°12'0 0.0
2015-Jul-26 16:21N 21°57' E 113°12'0 0.0
2015-Jul-26 15:33N 21°57' E 113°12'0 0.0
2015-Jul-26 14:27N 21°57' E 113°12'0 0.0
2015-Jul-26 13:33N 21°57' E 113°12'0 0.0
2015-Jul-26 12:15N 21°57' E 113°12'0 0.0
2015-Jul-26 11:09N 21°57' E 113°12'0 0.0
2015-Jul-26 10:33N 21°57' E 113°12'0 0.0
2015-Jul-26 09:33N 21°57' E 113°12'0 0.0
2015-Jul-26 08:33N 21°57' E 113°12'0 0.0
2015-Jul-26 07:27N 21°57' E 113°12'0 0.0
2015-Jul-26 06:27N 21°57' E 113°12'0 0.0
2015-Jul-26 05:33N 21°57' E 113°12'0 0.0
2015-Jul-26 04:33N 21°57' E 113°12'0 0.0
2015-Jul-26 03:21N 21°57' E 113°12'0 0.0
2015-Jul-26 02:33N 21°57' E 113°12'0 0.0
2015-Jul-26 01:33N 21°57' E 113°12'0 0.0
2015-Jul-26 00:33N 21°57' E 113°12'0 0.0
2015-Jul-25 23:33N 21°57' E 113°12'0 0.0
2015-Jul-25 22:33N 21°57' E 113°12'0 0.0
2015-Jul-25 21:33N 21°57' E 113°12'0 0.0
2015-Jul-25 20:33N 21°57' E 113°12'0 0.0
2015-Jul-25 19:27N 21°57' E 113°12'0 0.0
2015-Jul-25 18:33N 21°57' E 113°12'0 0.0
2015-Jul-25 17:27N 21°57' E 113°12'0 0.0
2015-Jul-25 16:27N 21°57' E 113°12'0 0.0
2015-Jul-25 15:33N 21°57' E 113°12'0 0.0
2015-Jul-25 14:21N 21°57' E 113°12'0 0.0
2015-Jul-25 13:33N 21°57' E 113°12'0 0.0
2015-Jul-25 12:33N 21°57' E 113°12'0 0.0
2015-Jul-25 11:33N 21°57' E 113°12'0 0.0
2015-Jul-25 10:33N 21°57' E 113°12'0 0.0
2015-Jul-25 09:33N 21°57' E 113°12'0 0.0
2015-Jul-25 08:27N 21°57' E 113°12'0 0.0
2015-Jul-25 07:33N 21°57' E 113°12'0 0.0
2015-Jul-25 06:33N 21°57' E 113°12'0 0.0
2015-Jul-25 05:33N 21°57' E 113°12'3 2.8
2015-Jul-25 04:33N 21°54' E 113°13'7 6.8
2015-Jul-25 03:33N 21°48' E 113°15'4 2.9
2015-Jul-25 02:08N 21°47' E 113°20'0 0.0
2015-Jul-25 01:26N 21°47' E 113°20'0 0.0
2015-Jul-25 00:32N 21°47' E 113°20'0 0.0
2015-Jul-24 23:20N 21°47' E 113°20'0 0.0
2015-Jul-24 22:26N 21°47' E 113°20'0 0.0
2015-Jul-24 21:26N 21°47' E 113°20'0 0.0
2015-Jul-24 20:32N 21°47' E 113°20'0 0.0
2015-Jul-24 19:26N 21°47' E 113°20'0 0.1
2015-Jul-24 18:26N 21°47' E 113°20'0 0.0
2015-Jul-24 17:14N 21°47' E 113°20'0 0.0
2015-Jul-24 16:32N 21°47' E 113°20'0 0.0
2015-Jul-24 15:20N 21°47' E 113°20'0 0.0
2015-Jul-24 14:32N 21°47' E 113°20'0 0.1
2015-Jul-24 13:26N 21°47' E 113°20'0 0.1
2015-Jul-24 12:32N 21°47' E 113°20'0 0.0
2015-Jul-24 11:14N 21°47' E 113°20'0 0.4
2015-Jul-24 10:22N 21°47' E 113°19'4 5.0
2015-Jul-24 09:33N 21°43' E 113°17'  
Track history (hours):
 
Tides and Currents Weather Stations Pressure Air Temp Water Temp Dewpoint Dewpoint Depression Visibility Wind Speed Wind Dir Waves Ship Positions

Cic Pride

Last reported at 2015-Aug-03 00:33 UTC. Time now 2015-Aug-04 11:44 UTC.
Position N 03°11' E 100°39'.

Length 289 m; draft 10 m.

Type: Cargo ship. MMSI: 351111000.

Date/timePositionNaut miles runAvg speedWind from/ knotsBaromVisibWave heightAir tempDewpointWater temp
2015-Aug-03 00:33N 03°11' E 100°39'2613.2
2015-Aug-02 22:34N 02°52' E 100°58'1313.1
2015-Aug-02 21:33N 02°45' E 101°09'3215.6
2015-Aug-02 19:29N 02°29' E 101°37'14214.3
2015-Aug-02 09:32N 01°12' E 103°37'1312.9
2015-Aug-02 08:33N 01°11' E 103°49'1212.1
2015-Aug-02 07:33N 01°15' E 104°01'4 3.6
2015-Aug-02 06:30N 01°18' E 104°03'0 0.1
2015-Aug-02 05:30N 01°18' E 104°03'0 0.0
2015-Aug-02 04:24N 01°18' E 104°03'0 0.1
2015-Aug-02 03:27N 01°18' E 104°03'0 0.1
2015-Aug-02 02:24N 01°18' E 104°03'1 0.3
2015-Aug-02 00:27N 01°18' E 104°03'0 0.3
2015-Aug-01 23:26N 01°18' E 104°03'0 0.0
2015-Aug-01 22:14N 01°18' E 104°03'0 0.0
2015-Aug-01 21:14N 01°18' E 104°03'0 0.0
2015-Aug-01 20:29N 01°18' E 104°03'0 0.0
2015-Aug-01 19:32N 01°18' E 104°03'0 0.0
2015-Aug-01 18:14N 01°18' E 104°03'0 0.0
2015-Aug-01 17:32N 01°18' E 104°03'0 0.3
2015-Aug-01 16:34N 01°18' E 104°03'  
2015-Jul-27 23:33N 21°48' E 113°15'8 8.2
2015-Jul-27 22:33N 21°55' E 113°12'2 0.8
2015-Jul-27 20:27N 21°57' E 113°12'0 0.0
2015-Jul-27 19:33N 21°57' E 113°12'0 0.0
2015-Jul-27 18:33N 21°57' E 113°12'0 0.0
2015-Jul-27 17:27N 21°57' E 113°12'0 0.0
2015-Jul-27 16:21N 21°57' E 113°12'0 0.0
2015-Jul-27 15:27N 21°57' E 113°12'0 0.0
2015-Jul-27 14:33N 21°57' E 113°12'0 0.0
2015-Jul-27 13:27N 21°57' E 113°12'0 0.0
2015-Jul-27 12:33N 21°57' E 113°12'0 0.0
2015-Jul-27 11:15N 21°57' E 113°12'0 0.0
2015-Jul-27 10:27N 21°57' E 113°12'0 0.0
2015-Jul-27 09:33N 21°57' E 113°12'0 0.0
2015-Jul-27 08:27N 21°57' E 113°12'0 0.0
2015-Jul-27 07:33N 21°57' E 113°12'0 0.0
2015-Jul-27 06:33N 21°57' E 113°12'0 0.0
2015-Jul-27 05:27N 21°57' E 113°12'0 0.0
2015-Jul-27 04:27N 21°57' E 113°12'0 0.0
2015-Jul-27 03:33N 21°57' E 113°12'0 0.0
2015-Jul-27 02:27N 21°57' E 113°12'0 0.0
2015-Jul-27 01:33N 21°57' E 113°12'0 0.0
2015-Jul-27 00:27N 21°57' E 113°12'0 0.0
2015-Jul-26 23:33N 21°57' E 113°12'0 0.0
2015-Jul-26 22:27N 21°57' E 113°12'0 0.0
2015-Jul-26 21:27N 21°57' E 113°12'0 0.0
2015-Jul-26 20:27N 21°57' E 113°12'0 0.0
2015-Jul-26 19:27N 21°57' E 113°12'0 0.0
2015-Jul-26 18:33N 21°57' E 113°12'0 0.0
2015-Jul-26 17:33N 21°57' E 113°12'0 0.0
2015-Jul-26 16:21N 21°57' E 113°12'0 0.0
2015-Jul-26 15:33N 21°57' E 113°12'0 0.0
2015-Jul-26 14:27N 21°57' E 113°12'0 0.0
2015-Jul-26 13:33N 21°57' E 113°12'0 0.0
2015-Jul-26 12:15N 21°57' E 113°12'0 0.0
2015-Jul-26 11:09N 21°57' E 113°12'0 0.0
2015-Jul-26 10:33N 21°57' E 113°12'0 0.0
2015-Jul-26 09:33N 21°57' E 113°12'0 0.0
2015-Jul-26 08:33N 21°57' E 113°12'0 0.0
2015-Jul-26 07:27N 21°57' E 113°12'0 0.0
2015-Jul-26 06:27N 21°57' E 113°12'0 0.0
2015-Jul-26 05:33N 21°57' E 113°12'0 0.0
2015-Jul-26 04:33N 21°57' E 113°12'0 0.0
2015-Jul-26 03:21N 21°57' E 113°12'0 0.0
2015-Jul-26 02:33N 21°57' E 113°12'0 0.0
2015-Jul-26 01:33N 21°57' E 113°12'0 0.0
2015-Jul-26 00:33N 21°57' E 113°12'0 0.0
2015-Jul-25 23:33N 21°57' E 113°12'0 0.0
2015-Jul-25 22:33N 21°57' E 113°12'0 0.0
2015-Jul-25 21:33N 21°57' E 113°12'0 0.0
2015-Jul-25 20:33N 21°57' E 113°12'0 0.0
2015-Jul-25 19:27N 21°57' E 113°12'0 0.0
2015-Jul-25 18:33N 21°57' E 113°12'0 0.0
2015-Jul-25 17:27N 21°57' E 113°12'0 0.0
2015-Jul-25 16:27N 21°57' E 113°12'0 0.0
2015-Jul-25 15:33N 21°57' E 113°12'0 0.0
2015-Jul-25 14:21N 21°57' E 113°12'0 0.0
2015-Jul-25 13:33N 21°57' E 113°12'0 0.0
2015-Jul-25 12:33N 21°57' E 113°12'0 0.0
2015-Jul-25 11:33N 21°57' E 113°12'0 0.0
2015-Jul-25 10:33N 21°57' E 113°12'0 0.0
2015-Jul-25 09:33N 21°57' E 113°12'0 0.0
2015-Jul-25 08:27N 21°57' E 113°12'0 0.0
2015-Jul-25 07:33N 21°57' E 113°12'0 0.0
2015-Jul-25 06:33N 21°57' E 113°12'0 0.0
2015-Jul-25 05:33N 21°57' E 113°12'3 2.8
2015-Jul-25 04:33N 21°54' E 113°13'7 6.8
2015-Jul-25 03:33N 21°48' E 113°15'4 2.9
2015-Jul-25 02:08N 21°47' E 113°20'0 0.0
2015-Jul-25 01:26N 21°47' E 113°20'0 0.0
2015-Jul-25 00:32N 21°47' E 113°20'0 0.0
2015-Jul-24 23:20N 21°47' E 113°20'0 0.0
2015-Jul-24 22:26N 21°47' E 113°20'0 0.0
2015-Jul-24 21:26N 21°47' E 113°20'0 0.0
2015-Jul-24 20:32N 21°47' E 113°20'0 0.0
2015-Jul-24 19:26N 21°47' E 113°20'0 0.1
2015-Jul-24 18:26N 21°47' E 113°20'0 0.0
2015-Jul-24 17:14N 21°47' E 113°20'0 0.0
2015-Jul-24 16:32N 21°47' E 113°20'0 0.0
2015-Jul-24 15:20N 21°47' E 113°20'0 0.0
2015-Jul-24 14:32N 21°47' E 113°20'0 0.1
2015-Jul-24 13:26N 21°47' E 113°20'0 0.1
2015-Jul-24 12:32N 21°47' E 113°20'0 0.0
2015-Jul-24 11:14N 21°47' E 113°20'0 0.4
2015-Jul-24 10:22N 21°47' E 113°19'4 5.0
2015-Jul-24 09:33N 21°43' E 113°17'  

Dump ship's entire track history